createdAt,value
2023-05-13T00:00:09.456Z,48.06
2023-05-13T00:02:43.130Z,48.28
2023-05-13T00:05:11.769Z,49.06
2023-05-13T00:07:41.858Z,48.48
2023-05-13T00:10:11.000Z,48.20
2023-05-13T00:12:39.966Z,48.73
2023-05-13T00:15:09.180Z,48.77
2023-05-13T00:17:38.103Z,49.09
2023-05-13T00:20:09.356Z,49.40
2023-05-13T00:22:56.145Z,48.87
2023-05-13T00:25:24.269Z,49.62
2023-05-13T00:27:52.581Z,49.71
2023-05-13T00:30:21.420Z,49.65
2023-05-13T00:32:50.345Z,49.79
2023-05-13T00:35:20.246Z,49.31
2023-05-13T00:37:48.537Z,49.21
2023-05-13T00:40:21.128Z,49.00
2023-05-13T00:42:51.148Z,49.86
2023-05-13T00:45:19.528Z,50.61
2023-05-13T00:47:48.811Z,49.98
2023-05-13T00:50:16.999Z,50.56
2023-05-13T00:52:47.810Z,51.26
2023-05-13T00:55:16.244Z,51.12
2023-05-13T00:57:44.629Z,50.40
2023-05-13T01:00:13.568Z,50.78
2023-05-13T01:02:53.197Z,50.69
2023-05-13T01:05:40.949Z,51.26
2023-05-13T01:08:20.613Z,51.01
2023-05-13T01:10:52.584Z,51.58
2023-05-13T01:13:27.250Z,51.87
2023-05-13T01:16:00.335Z,52.42
2023-05-13T01:18:35.177Z,51.92
2023-05-13T01:21:05.203Z,52.03
2023-05-13T01:23:35.649Z,53.00
2023-05-13T01:26:03.756Z,52.88
2023-05-13T01:28:31.998Z,54.17
2023-05-13T01:31:00.308Z,52.82
2023-05-13T01:33:29.668Z,53.22
2023-05-13T01:35:58.296Z,52.78
2023-05-13T01:38:29.116Z,54.23
2023-05-13T01:41:00.423Z,54.74
2023-05-13T01:43:30.296Z,55.00
2023-05-13T01:46:00.505Z,54.69
2023-05-13T01:48:28.846Z,54.55
2023-05-13T01:50:57.679Z,55.38
2023-05-13T01:53:25.813Z,55.75
2023-05-13T01:55:53.932Z,55.08
2023-05-13T01:58:23.487Z,56.28
2023-05-13T02:00:52.239Z,56.43
2023-05-13T02:03:20.831Z,55.70
2023-05-13T02:05:49.058Z,55.74
2023-05-13T02:08:22.042Z,57.32
2023-05-13T02:10:56.626Z,57.62
2023-05-13T02:13:27.238Z,58.27
2023-05-13T02:15:56.220Z,56.99
2023-05-13T02:18:24.586Z,56.68
2023-05-13T02:20:56.630Z,56.23
2023-05-13T02:23:25.523Z,56.58
2023-05-13T02:25:53.721Z,56.88
2023-05-13T02:28:21.875Z,56.77
2023-05-13T02:30:52.341Z,57.13
2023-05-13T02:33:20.703Z,56.40
2023-05-13T02:35:49.021Z,56.56
2023-05-13T02:38:20.479Z,55.77
2023-05-13T02:40:48.536Z,58.54
2023-05-13T02:43:18.502Z,59.76
2023-05-13T02:45:49.357Z,58.13
2023-05-13T02:48:19.772Z,60.19
2023-05-13T02:50:48.359Z,60.29
2023-05-13T02:53:17.254Z,60.40
2023-05-13T02:55:45.429Z,59.43
2023-05-13T02:58:14.528Z,58.81
2023-05-13T03:00:43.102Z,58.77
2023-05-13T03:03:11.383Z,58.65
2023-05-13T03:05:40.995Z,58.39
2023-05-13T03:08:09.179Z,59.25
2023-05-13T03:10:37.237Z,58.79
2023-05-13T03:13:05.383Z,58.36
2023-05-13T03:15:33.452Z,58.61
2023-05-13T03:18:01.680Z,58.35
2023-05-13T03:20:31.883Z,57.92
2023-05-13T03:23:01.922Z,57.28
2023-05-13T03:25:30.088Z,57.48
2023-05-13T03:27:58.196Z,57.28
2023-05-13T03:30:26.496Z,57.29
2023-05-13T03:32:54.685Z,57.15
2023-05-13T03:35:22.944Z,56.61
2023-05-13T03:37:51.184Z,57.00
2023-05-13T03:40:21.599Z,56.52
2023-05-13T03:42:51.923Z,55.50
2023-05-13T03:45:20.591Z,55.45
2023-05-13T03:47:49.019Z,56.24
2023-05-13T03:50:17.432Z,55.87
2023-05-13T03:52:47.105Z,55.13
2023-05-13T03:55:16.184Z,55.70
2023-05-13T03:57:50.063Z,55.11
2023-05-13T04:00:18.977Z,55.27
2023-05-13T04:02:47.459Z,55.92
2023-05-13T04:05:15.966Z,54.84
2023-05-13T04:07:44.101Z,55.27
2023-05-13T04:10:19.261Z,55.31
2023-05-13T04:12:48.963Z,56.07
2023-05-13T04:15:17.295Z,56.34
2023-05-13T04:17:45.820Z,56.00
2023-05-13T04:20:14.253Z,56.11
2023-05-13T04:22:42.774Z,55.99
2023-05-13T04:25:11.548Z,56.72
2023-05-13T04:27:39.689Z,56.40
2023-05-13T04:30:11.164Z,56.29
2023-05-13T04:32:39.399Z,56.01
2023-05-13T04:35:08.585Z,56.18
2023-05-13T04:37:36.713Z,55.83
2023-05-13T04:40:05.322Z,56.07
2023-05-13T04:42:33.595Z,55.49
2023-05-13T04:45:03.140Z,56.13
2023-05-13T04:47:35.428Z,55.08
2023-05-13T04:50:14.565Z,53.81
2023-05-13T04:52:44.784Z,54.24
2023-05-13T04:55:13.785Z,53.36
2023-05-13T04:57:44.003Z,52.82
2023-05-13T05:00:23.997Z,52.28
2023-05-13T05:02:54.377Z,52.36
2023-05-13T05:05:23.094Z,51.37
2023-05-13T05:07:51.709Z,51.39
2023-05-13T05:10:20.223Z,51.20
2023-05-13T05:12:48.539Z,50.71
2023-05-13T05:15:22.016Z,50.47
2023-05-13T05:17:50.477Z,50.73
2023-05-13T05:20:20.553Z,50.66
2023-05-13T05:22:50.414Z,49.75
2023-05-13T05:25:19.711Z,48.70
2023-05-13T05:27:50.816Z,49.22
2023-05-13T05:30:24.125Z,48.81
2023-05-13T05:32:52.775Z,48.22
2023-05-13T05:35:23.512Z,48.57
2023-05-13T05:37:51.625Z,47.72
2023-05-13T05:40:20.344Z,47.75
2023-05-13T05:42:48.848Z,46.49
2023-05-13T05:45:19.306Z,46.72
2023-05-13T05:47:47.543Z,45.79
2023-05-13T05:50:15.748Z,45.79
2023-05-13T05:52:45.433Z,45.46
2023-05-13T05:55:14.256Z,45.94
2023-05-13T05:57:42.493Z,44.99
2023-05-13T06:00:12.337Z,44.49
2023-05-13T06:02:40.658Z,44.11
2023-05-13T06:05:10.534Z,43.33
2023-05-13T06:07:39.111Z,42.47
2023-05-13T06:10:09.342Z,43.54
2023-05-13T06:12:37.491Z,43.21
2023-05-13T06:15:10.696Z,42.51
2023-05-13T06:17:39.019Z,42.15
2023-05-13T06:20:08.932Z,41.22
2023-05-13T06:22:37.419Z,40.38
2023-05-13T06:25:23.045Z,40.11
2023-05-13T06:27:51.160Z,39.48
2023-05-13T06:30:21.805Z,39.41
2023-05-13T06:33:00.223Z,38.42
2023-05-13T06:35:30.187Z,38.68
2023-05-13T06:37:58.350Z,38.41
2023-05-13T06:40:27.858Z,37.69
2023-05-13T06:42:55.973Z,36.94
2023-05-13T06:45:26.051Z,36.89
2023-05-13T06:47:54.786Z,36.61
2023-05-13T06:50:23.109Z,35.26
2023-05-13T06:52:51.328Z,34.99
2023-05-13T06:55:19.998Z,35.37
2023-05-13T06:57:49.561Z,34.95
2023-05-13T07:00:19.300Z,34.44
2023-05-13T07:02:49.475Z,34.52
2023-05-13T07:05:17.777Z,34.23
2023-05-13T07:07:46.259Z,33.80
2023-05-13T07:10:14.400Z,33.85
2023-05-13T07:12:42.734Z,33.13
2023-05-13T07:15:12.864Z,32.41
2023-05-13T07:17:41.611Z,32.59
2023-05-13T07:20:12.572Z,32.31
2023-05-13T07:22:40.922Z,31.91
2023-05-13T07:25:09.912Z,32.46
2023-05-13T07:27:38.044Z,32.30
2023-05-13T07:30:07.345Z,32.14
2023-05-13T07:32:37.218Z,31.73
2023-05-13T07:35:06.414Z,31.85
2023-05-13T07:37:34.560Z,31.57
2023-05-13T07:40:03.329Z,31.96
2023-05-13T07:42:31.545Z,32.09
2023-05-13T07:45:01.204Z,31.50
2023-05-13T07:47:31.404Z,31.17
2023-05-13T07:50:01.142Z,31.03
2023-05-13T07:52:29.278Z,31.25
2023-05-13T07:54:57.386Z,31.32
2023-05-13T07:57:25.905Z,32.08
2023-05-13T07:59:54.249Z,31.28
2023-05-13T08:02:22.461Z,31.36
2023-05-13T08:04:50.611Z,31.27
2023-05-13T08:07:20.173Z,30.84
2023-05-13T08:09:48.462Z,31.13
2023-05-13T08:12:16.610Z,30.73
2023-05-13T08:14:48.989Z,30.82
2023-05-13T08:17:18.353Z,30.89
2023-05-13T08:19:53.577Z,31.48
2023-05-13T08:22:23.213Z,30.18
2023-05-13T08:24:51.335Z,29.97
2023-05-13T08:27:19.396Z,30.55
2023-05-13T08:29:47.528Z,30.26
2023-05-13T08:32:15.682Z,30.60
2023-05-13T08:35:03.526Z,30.07
2023-05-13T08:37:33.016Z,30.07
2023-05-13T08:40:01.709Z,30.16
2023-05-13T08:42:33.454Z,30.93
2023-05-13T08:45:06.323Z,29.94
2023-05-13T08:47:45.333Z,30.30
2023-05-13T08:50:14.055Z,29.98
2023-05-13T08:52:44.614Z,29.61
2023-05-13T08:55:13.009Z,30.85
2023-05-13T08:57:41.538Z,30.41
2023-05-13T09:00:10.570Z,28.63
2023-05-13T09:02:39.689Z,29.51
2023-05-13T09:05:09.870Z,29.29
2023-05-13T09:07:39.627Z,29.67
2023-05-13T09:10:12.227Z,29.71
2023-05-13T09:12:47.696Z,29.70
2023-05-13T09:15:17.674Z,30.28
2023-05-13T09:17:46.976Z,30.72
2023-05-13T09:20:16.566Z,29.88
2023-05-13T09:22:49.290Z,30.25
2023-05-13T09:25:20.361Z,29.46
2023-05-13T09:27:57.688Z,29.64
2023-05-13T09:30:26.529Z,29.31
2023-05-13T09:33:12.221Z,29.09
2023-05-13T09:35:41.578Z,30.02
2023-05-13T09:38:17.659Z,29.40
2023-05-13T09:40:54.926Z,29.83
2023-05-13T09:43:26.097Z,29.18
2023-05-13T09:46:05.249Z,28.72
2023-05-13T09:48:35.196Z,29.74
2023-05-13T09:51:03.308Z,29.10
2023-05-13T09:53:32.885Z,29.38
2023-05-13T09:56:02.489Z,28.66
2023-05-13T09:58:31.207Z,27.93
2023-05-13T10:00:59.978Z,28.32
2023-05-13T10:03:30.149Z,27.81
2023-05-13T10:06:02.185Z,28.30
2023-05-13T10:08:31.813Z,28.58
2023-05-13T10:11:00.884Z,28.50
2023-05-13T10:13:33.288Z,27.43
2023-05-13T10:16:01.474Z,27.80
2023-05-13T10:18:30.687Z,27.42
2023-05-13T10:20:59.482Z,26.94
2023-05-13T10:23:29.446Z,27.35
2023-05-13T10:26:00.743Z,27.29
2023-05-13T10:28:30.776Z,27.57
2023-05-13T10:30:58.986Z,28.34
2023-05-13T10:33:29.750Z,27.61
2023-05-13T10:36:12.816Z,27.74
2023-05-13T10:39:01.572Z,27.03
2023-05-13T10:42:00.698Z,27.08
2023-05-13T10:44:33.696Z,27.94
2023-05-13T10:47:02.968Z,27.62
2023-05-13T10:49:35.072Z,27.22
2023-05-13T10:52:06.987Z,28.00
2023-05-13T10:54:58.571Z,26.24
2023-05-13T10:57:29.802Z,26.25
2023-05-13T11:00:18.321Z,26.02
2023-05-13T11:02:56.678Z,27.50
2023-05-13T11:05:25.345Z,27.27
2023-05-13T11:07:57.929Z,27.68
2023-05-13T11:10:31.498Z,26.13
2023-05-13T11:13:23.080Z,26.39
2023-05-13T11:15:54.148Z,25.81
2023-05-13T11:18:31.447Z,25.70
2023-05-13T11:21:05.725Z,26.36
2023-05-13T11:23:36.387Z,26.93
2023-05-13T11:26:17.235Z,26.49
2023-05-13T11:28:56.660Z,25.79
2023-05-13T11:31:28.473Z,26.47
2023-05-13T11:34:29.802Z,26.91
2023-05-13T11:37:08.281Z,26.11
2023-05-13T11:39:37.351Z,26.14
2023-05-13T11:42:09.820Z,25.76
2023-05-13T11:44:46.928Z,26.64
2023-05-13T11:47:26.536Z,26.18
2023-05-13T11:49:55.954Z,25.20
2023-05-13T11:52:24.159Z,25.02
2023-05-13T11:54:53.955Z,25.07
2023-05-13T11:57:23.733Z,24.96
2023-05-13T11:59:53.592Z,25.73
2023-05-13T12:02:24.793Z,25.69
2023-05-13T12:04:53.796Z,24.93
2023-05-13T12:07:23.908Z,24.04
2023-05-13T12:09:52.667Z,24.09
2023-05-13T12:12:23.872Z,23.80
2023-05-13T12:14:53.073Z,23.92
2023-05-13T12:17:23.718Z,25.04
2023-05-13T12:20:14.634Z,24.78
2023-05-13T12:22:54.146Z,25.20
2023-05-13T12:25:51.345Z,25.06
2023-05-13T12:28:22.866Z,23.66
2023-05-13T12:30:53.520Z,23.25
2023-05-13T12:33:24.392Z,22.93
2023-05-13T12:35:54.091Z,22.69
2023-05-13T12:38:26.948Z,23.20
2023-05-13T12:40:55.607Z,22.94
2023-05-13T12:43:49.327Z,23.22
2023-05-13T12:46:17.485Z,22.21
2023-05-13T12:48:46.956Z,21.99
2023-05-13T12:51:16.954Z,21.76
2023-05-13T12:53:45.013Z,22.15
2023-05-13T12:56:13.623Z,21.92
2023-05-13T12:58:42.120Z,22.26
2023-05-13T13:01:10.199Z,22.17
2023-05-13T13:03:38.323Z,21.63
2023-05-13T13:06:09.291Z,22.72
2023-05-13T13:08:37.489Z,22.97
2023-05-13T13:11:06.328Z,22.58
2023-05-13T13:13:36.651Z,21.84
2023-05-13T13:16:07.414Z,22.17
2023-05-13T13:18:35.589Z,21.87
2023-05-13T13:21:05.579Z,22.25
2023-05-13T13:23:35.988Z,22.11
2023-05-13T13:26:04.455Z,22.04
2023-05-13T13:28:32.926Z,21.85
2023-05-13T13:31:00.993Z,22.01
2023-05-13T13:33:29.098Z,21.72
2023-05-13T13:35:57.183Z,21.52
2023-05-13T13:38:25.763Z,21.68
2023-05-13T13:40:55.368Z,22.72
2023-05-13T13:43:24.155Z,22.57
2023-05-13T13:45:53.948Z,22.33
2023-05-13T13:48:22.721Z,22.42
2023-05-13T13:50:52.766Z,22.57
2023-05-13T13:53:21.161Z,22.08
2023-05-13T13:55:49.242Z,21.11
2023-05-13T13:58:18.729Z,21.27
2023-05-13T14:00:47.324Z,21.24
2023-05-13T14:03:15.541Z,20.27
2023-05-13T14:05:43.666Z,20.22
2023-05-13T14:08:11.916Z,20.82
2023-05-13T14:13:23.516Z,20.72
2023-05-13T14:15:51.681Z,20.25
2023-05-13T14:18:19.940Z,20.54
2023-05-13T14:20:50.358Z,20.33
2023-05-13T14:23:19.092Z,19.36
2023-05-13T14:25:47.396Z,20.31
2023-05-13T14:28:15.752Z,19.63
2023-05-13T14:30:45.363Z,19.59
2023-05-13T14:33:13.832Z,20.40
2023-05-13T14:35:42.056Z,20.67
2023-05-13T14:38:10.293Z,20.10
2023-05-13T14:40:39.267Z,20.52
2023-05-13T14:43:08.500Z,20.72
2023-05-13T14:45:36.860Z,20.25
2023-05-13T14:48:07.062Z,21.56
2023-05-13T14:50:35.222Z,20.32
2023-05-13T14:53:03.435Z,20.79
2023-05-13T14:55:31.536Z,20.92
2023-05-13T14:58:00.174Z,21.24
2023-05-13T15:00:28.477Z,21.11
2023-05-13T15:02:58.943Z,21.11
2023-05-13T15:05:29.075Z,20.81
2023-05-13T15:07:57.249Z,20.46
2023-05-13T15:10:25.394Z,20.06
2023-05-13T15:12:53.594Z,19.69
2023-05-13T15:15:22.062Z,19.76
2023-05-13T15:17:50.292Z,19.89
2023-05-13T15:20:18.445Z,19.64
2023-05-13T15:22:51.383Z,19.40
2023-05-13T15:25:19.642Z,19.73
2023-05-13T15:27:48.325Z,19.90
2023-05-13T15:30:17.829Z,19.28
2023-05-13T15:32:45.914Z,18.42
2023-05-13T15:35:20.518Z,18.11
2023-05-13T15:37:50.351Z,18.38
2023-05-13T15:40:18.486Z,17.68
2023-05-13T15:42:48.797Z,17.35
2023-05-13T15:45:17.726Z,17.36
2023-05-13T15:47:45.963Z,17.75
2023-05-13T15:50:34.223Z,18.65
2023-05-13T15:53:04.216Z,18.98
2023-05-13T15:55:33.159Z,19.10
2023-05-13T15:58:01.765Z,18.14
2023-05-13T16:00:29.839Z,18.88
2023-05-13T16:03:03.417Z,20.18
2023-05-13T16:05:38.672Z,19.75
2023-05-13T16:08:08.351Z,19.15
2023-05-13T16:10:36.397Z,18.13
2023-05-13T16:13:04.513Z,18.24
2023-05-13T16:15:32.848Z,18.16
2023-05-13T16:18:01.111Z,18.96
2023-05-13T16:20:29.291Z,19.57
2023-05-13T16:22:57.387Z,20.07
2023-05-13T16:25:27.404Z,20.06
2023-05-13T16:27:56.961Z,19.05
2023-05-13T16:30:25.248Z,18.18
2023-05-13T16:32:54.644Z,18.54
2023-05-13T16:35:24.048Z,18.82
2023-05-13T16:37:52.145Z,19.05
2023-05-13T16:40:20.435Z,19.13
2023-05-13T16:42:52.193Z,19.58
2023-05-13T16:45:20.693Z,19.87
2023-05-13T16:47:48.990Z,19.89
2023-05-13T16:50:17.353Z,20.18
2023-05-13T16:52:45.622Z,21.74
2023-05-13T16:55:14.918Z,22.54
2023-05-13T16:57:45.380Z,23.29
2023-05-13T17:00:15.887Z,24.08
2023-05-13T17:02:44.034Z,25.00
2023-05-13T17:05:12.489Z,25.46
2023-05-13T17:07:41.178Z,25.16
2023-05-13T17:10:10.131Z,25.37
2023-05-13T17:12:39.042Z,25.45
2023-05-13T17:15:08.400Z,25.95
2023-05-13T17:17:38.084Z,25.75
2023-05-13T17:20:07.529Z,27.33
2023-05-13T17:22:35.640Z,27.46
2023-05-13T17:25:08.297Z,27.94
2023-05-13T17:27:36.661Z,28.28
2023-05-13T17:30:05.750Z,28.45
2023-05-13T17:32:33.970Z,29.63
2023-05-13T17:35:04.049Z,29.90
2023-05-13T17:37:32.285Z,30.29
2023-05-13T17:40:02.719Z,31.03
2023-05-13T17:42:31.625Z,30.49
2023-05-13T17:45:02.181Z,31.19
2023-05-13T17:47:31.194Z,31.44
2023-05-13T17:49:59.538Z,31.77
2023-05-13T17:52:29.072Z,32.01
2023-05-13T17:55:00.351Z,31.41
2023-05-13T17:57:29.162Z,31.98
2023-05-13T17:59:57.914Z,31.80
2023-05-13T18:02:26.354Z,32.95
2023-05-13T18:04:54.564Z,33.15
2023-05-13T18:07:22.729Z,34.35
2023-05-13T18:09:52.233Z,33.30
2023-05-13T18:12:20.398Z,34.37
2023-05-13T18:14:48.475Z,35.21
2023-05-13T18:17:16.924Z,35.12
2023-05-13T18:19:45.464Z,35.76
2023-05-13T18:22:13.747Z,36.12
2023-05-13T18:24:42.311Z,36.49
2023-05-13T18:27:12.487Z,37.29
2023-05-13T18:29:40.892Z,37.68
2023-05-13T18:32:09.108Z,37.91
2023-05-13T18:34:37.982Z,37.77
2023-05-13T18:37:07.662Z,39.03
2023-05-13T18:39:35.836Z,39.06
2023-05-13T18:42:04.043Z,39.96
2023-05-13T18:44:34.790Z,41.27
2023-05-13T18:47:03.002Z,40.21
2023-05-13T18:49:32.842Z,40.60
2023-05-13T18:52:01.685Z,40.91
2023-05-13T18:54:30.191Z,40.81
2023-05-13T18:57:08.868Z,41.38
2023-05-13T18:59:38.832Z,41.58
2023-05-13T19:02:07.685Z,42.60
2023-05-13T19:04:36.016Z,43.24
2023-05-13T19:07:04.634Z,43.75
2023-05-13T19:09:34.256Z,43.33
2023-05-13T19:12:07.756Z,43.28
2023-05-13T19:14:35.844Z,44.86
2023-05-13T19:17:05.821Z,45.21
2023-05-13T19:19:34.207Z,44.91
2023-05-13T19:22:02.419Z,44.88
2023-05-13T19:24:30.689Z,45.65
2023-05-13T19:26:58.843Z,45.31
2023-05-13T19:29:27.420Z,46.41
2023-05-13T19:31:55.614Z,46.85
2023-05-13T19:34:25.169Z,46.65
2023-05-13T19:36:53.759Z,46.30
2023-05-13T19:39:21.932Z,46.86
2023-05-13T19:41:50.040Z,47.20
2023-05-13T19:44:20.039Z,47.03
2023-05-13T19:46:48.323Z,47.01
2023-05-13T19:49:16.606Z,47.44
2023-05-13T19:51:46.220Z,47.42
2023-05-13T19:54:14.688Z,47.29
2023-05-13T19:56:43.365Z,47.72
2023-05-13T19:59:11.543Z,48.88
2023-05-13T20:01:39.806Z,49.14
2023-05-13T20:04:08.131Z,48.96
2023-05-13T20:06:36.775Z,49.18
2023-05-13T20:09:06.435Z,49.06
2023-05-13T20:11:35.031Z,49.93
2023-05-13T20:14:03.174Z,48.03
2023-05-13T20:16:31.396Z,48.74
2023-05-13T20:18:59.757Z,48.18
2023-05-13T20:21:27.993Z,48.19
2023-05-13T20:23:56.529Z,47.67
2023-05-13T20:26:26.311Z,48.05
2023-05-13T20:28:54.567Z,48.03
2023-05-13T20:31:22.689Z,48.16
2023-05-13T20:33:51.331Z,48.54
2023-05-13T20:36:19.541Z,48.25
2023-05-13T20:38:50.881Z,48.78
2023-05-13T20:41:19.127Z,48.94
2023-05-13T20:43:49.418Z,49.86
2023-05-13T20:46:18.285Z,50.43
2023-05-13T20:48:48.097Z,52.00
2023-05-13T20:51:17.036Z,50.22
2023-05-13T20:53:49.273Z,51.79
2023-05-13T20:56:17.628Z,52.56
2023-05-13T20:58:45.867Z,52.48
2023-05-13T21:01:15.585Z,52.67
2023-05-13T21:03:43.823Z,51.83
2023-05-13T21:06:12.473Z,51.13
2023-05-13T21:08:40.786Z,51.91
2023-05-13T21:11:09.038Z,51.08
2023-05-13T21:13:37.404Z,50.72
2023-05-13T21:16:06.261Z,50.89
2023-05-13T21:18:36.312Z,50.99
2023-05-13T21:21:08.714Z,50.95
2023-05-13T21:23:37.301Z,50.85
2023-05-13T21:26:06.655Z,50.73
2023-05-13T21:28:34.826Z,50.69
2023-05-13T21:31:03.267Z,50.88
2023-05-13T21:33:32.055Z,50.47
2023-05-13T21:36:02.038Z,50.76
2023-05-13T21:38:30.276Z,50.89
2023-05-13T21:40:59.235Z,51.17
2023-05-13T21:43:27.474Z,50.85
2023-05-13T21:45:57.203Z,50.77
2023-05-13T21:48:25.926Z,51.08
2023-05-13T21:50:54.293Z,50.50
2023-05-13T21:53:23.849Z,51.02
2023-05-13T21:55:53.662Z,50.92
2023-05-13T21:58:23.384Z,50.90
2023-05-13T22:00:52.795Z,50.62
2023-05-13T22:03:21.060Z,50.50
2023-05-13T22:05:50.102Z,50.23
2023-05-13T22:08:18.173Z,50.02
2023-05-13T22:10:47.912Z,49.42
2023-05-13T22:13:16.181Z,49.33
2023-05-13T22:15:44.691Z,48.97
2023-05-13T22:18:12.970Z,48.77
2023-05-13T22:20:41.870Z,48.89
2023-05-13T22:23:10.007Z,48.56
2023-05-13T22:25:38.379Z,48.40
2023-05-13T22:28:08.159Z,48.57
2023-05-13T22:30:36.677Z,48.45
2023-05-13T22:33:05.348Z,48.08
2023-05-13T22:35:36.613Z,48.35
2023-05-13T22:38:05.409Z,48.17
2023-05-13T22:40:33.544Z,48.00
2023-05-13T22:43:02.017Z,47.95
2023-05-13T22:45:32.663Z,48.21
2023-05-13T22:48:00.820Z,48.06
2023-05-13T22:50:29.761Z,47.93
2023-05-13T22:52:57.976Z,47.88
2023-05-13T22:55:26.511Z,47.54
2023-05-13T22:57:54.840Z,47.67
2023-05-13T23:00:23.263Z,47.85
2023-05-13T23:02:53.167Z,47.66
2023-05-13T23:05:21.406Z,47.56
2023-05-13T23:07:49.523Z,47.63
2023-05-13T23:10:17.735Z,48.01
2023-05-13T23:12:45.942Z,47.89
2023-05-13T23:15:16.218Z,48.18
2023-05-13T23:17:44.582Z,48.42
2023-05-13T23:20:14.607Z,48.43
2023-05-13T23:22:50.942Z,48.37
2023-05-13T23:25:19.331Z,48.07
2023-05-13T23:27:47.596Z,48.05
2023-05-13T23:30:16.652Z,48.30
2023-05-13T23:32:44.949Z,48.43
2023-05-13T23:35:14.444Z,48.08
2023-05-13T23:37:50.447Z,47.87
2023-05-13T23:40:19.183Z,48.13
2023-05-13T23:42:47.275Z,48.04
2023-05-13T23:45:16.169Z,48.09
2023-05-13T23:47:45.688Z,48.57
2023-05-13T23:50:15.357Z,48.35
2023-05-13T23:52:43.812Z,48.99
2023-05-13T23:55:12.184Z,49.17
2023-05-13T23:57:40.271Z,48.80
